Archival Weather

Fukuoka

Fukuoka, Japan (RJFF)

Report from: Monday, August 15, 2022 3:30 PM JST
Current time: Tuesday, July 16, 2024 6:49 PM JST

Current weather – Weather history – Daily summaries
Weather forecast

Temperature32.0°C (89.6°F)
Heat index40.7°C (105.2°F)
Dew point26.0°C (78.8°F)
Winds 16 kts (8.2 m/s, 18.4 mph) South (170°)
Visibility6.2 mi. (10 km)
Clouds Ceiling: Broken clouds 0 ft. (0 m)
Few clouds 2,000 ft. (610 m)
Altimeter29.71 in.Hg (1006 mB)
Relative humidity71 %
Density altitude2,631 ft. (802 m)
Remarks No significant changes expected in the next two hours
Flight conditions Low Instrument Meteorological Conditions
Raw dataRJFF 150630Z 17016KT 9999 FEW020 BKN/// 32/26 Q1006 NOSIG
An error has occurred. This application may no longer respond until reloaded. Reload 🗙